sensor_id;sensor_type;location;lat;lon;timestamp;pressure;altitude;pressure_sealevel;temperature;humidity
69982;BME280;57319;56.274;43.980;2024-02-26T00:01:27;101535.47;;;-6.99;58.88
69982;BME280;57319;56.274;43.980;2024-02-26T00:03:53;101535.13;;;-6.93;58.08
69982;BME280;57319;56.274;43.980;2024-02-26T00:06:19;101530.34;;;-7.01;57.71
69982;BME280;57319;56.274;43.980;2024-02-26T00:08:46;101534.09;;;-6.95;59.12
69982;BME280;57319;56.274;43.980;2024-02-26T00:11:11;101543.25;;;-6.96;59.15
69982;BME280;57319;56.274;43.980;2024-02-26T00:13:37;101536.44;;;-7.07;56.10
69982;BME280;57319;56.274;43.980;2024-02-26T00:16:03;101526.97;;;-7.20;54.95
69982;BME280;57319;56.274;43.980;2024-02-26T00:18:29;101529.53;;;-7.10;56.63
69982;BME280;57319;56.274;43.980;2024-02-26T00:20:55;101529.56;;;-7.29;56.72
69982;BME280;57319;56.274;43.980;2024-02-26T00:23:21;101526.78;;;-7.13;58.31
69982;BME280;57319;56.274;43.980;2024-02-26T00:25:48;101529.59;;;-7.19;56.66
69982;BME280;57319;56.274;43.980;2024-02-26T00:28:13;101524.00;;;-7.16;58.56
69982;BME280;57319;56.274;43.980;2024-02-26T00:30:39;101531.91;;;-7.11;56.77
69982;BME280;57319;56.274;43.980;2024-02-26T00:33:05;101513.25;;;-7.34;58.23
69982;BME280;57319;56.274;43.980;2024-02-26T00:35:30;101507.91;;;-7.28;57.96
69982;BME280;57319;56.274;43.980;2024-02-26T00:37:56;101503.22;;;-7.15;58.92
69982;BME280;57319;56.274;43.980;2024-02-26T00:40:22;101501.22;;;-7.19;59.02
69982;BME280;57319;56.274;43.980;2024-02-26T00:42:47;101496.94;;;-7.20;58.68
69982;BME280;57319;56.274;43.980;2024-02-26T00:45:14;101489.56;;;-7.19;57.73
69982;BME280;57319;56.274;43.980;2024-02-26T00:47:39;101501.34;;;-7.18;58.91
69982;BME280;57319;56.274;43.980;2024-02-26T00:50:09;101497.63;;;-7.31;58.55
69982;BME280;57319;56.274;43.980;2024-02-26T00:52:35;101501.44;;;-7.26;59.57
69982;BME280;57319;56.274;43.980;2024-02-26T00:55:02;101493.19;;;-7.25;58.98
69982;BME280;57319;56.274;43.980;2024-02-26T00:57:29;101497.25;;;-7.36;56.12
69982;BME280;57319;56.274;43.980;2024-02-26T00:59:54;101493.50;;;-7.31;57.26
69982;BME280;57319;56.274;43.980;2024-02-26T01:02:22;101497.63;;;-7.31;57.90
69982;BME280;57319;56.274;43.980;2024-02-26T01:04:48;101499.66;;;-7.27;56.66
69982;BME280;57319;56.274;43.980;2024-02-26T01:07:13;101494.66;;;-7.27;57.80
69982;BME280;57319;56.274;43.980;2024-02-26T01:09:39;101503.84;;;-7.37;57.77
69982;BME280;57319;56.274;43.980;2024-02-26T01:12:05;101497.72;;;-7.40;59.12
69982;BME280;57319;56.274;43.980;2024-02-26T01:14:31;101492.25;;;-7.55;59.31
69982;BME280;57319;56.274;43.980;2024-02-26T01:16:57;101492.47;;;-7.62;58.63
69982;BME280;57319;56.274;43.980;2024-02-26T01:19:22;101495.97;;;-7.60;57.31
69982;BME280;57319;56.274;43.980;2024-02-26T01:21:48;101496.78;;;-7.70;58.10
69982;BME280;57319;56.274;43.980;2024-02-26T01:24:13;101487.88;;;-7.58;58.79
69982;BME280;57319;56.274;43.980;2024-02-26T01:26:41;101497.59;;;-7.61;58.71
69982;BME280;57319;56.274;43.980;2024-02-26T01:29:06;101485.34;;;-7.58;59.57
69982;BME280;57319;56.274;43.980;2024-02-26T01:31:32;101490.22;;;-7.59;60.28
69982;BME280;57319;56.274;43.980;2024-02-26T01:33:58;101488.06;;;-7.65;59.60
69982;BME280;57319;56.274;43.980;2024-02-26T01:36:23;101483.81;;;-7.66;60.38
69982;BME280;57319;56.274;43.980;2024-02-26T01:38:49;101481.09;;;-7.78;58.58
69982;BME280;57319;56.274;43.980;2024-02-26T01:41:15;101483.41;;;-7.71;59.66
69982;BME280;57319;56.274;43.980;2024-02-26T01:43:40;101480.84;;;-7.62;58.93
69982;BME280;57319;56.274;43.980;2024-02-26T01:46:10;101478.94;;;-7.64;59.62
69982;BME280;57319;56.274;43.980;2024-02-26T01:48:40;101481.09;;;-7.59;60.03
69982;BME280;57319;56.274;43.980;2024-02-26T01:51:06;101473.72;;;-7.57;60.88
69982;BME280;57319;56.274;43.980;2024-02-26T01:53:32;101472.00;;;-7.58;59.17
69982;BME280;57319;56.274;43.980;2024-02-26T01:55:58;101475.00;;;-7.71;60.07
69982;BME280;57319;56.274;43.980;2024-02-26T01:58:24;101467.47;;;-7.62;59.61
69982;BME280;57319;56.274;43.980;2024-02-26T02:00:49;101475.84;;;-7.62;60.42
69982;BME280;57319;56.274;43.980;2024-02-26T02:03:15;101469.31;;;-7.60;60.03
69982;BME280;57319;56.274;43.980;2024-02-26T02:05:42;101471.16;;;-7.68;59.12
69982;BME280;57319;56.274;43.980;2024-02-26T02:08:10;101469.97;;;-7.62;59.76
69982;BME280;57319;56.274;43.980;2024-02-26T02:10:36;101470.97;;;-7.60;59.34
69982;BME280;57319;56.274;43.980;2024-02-26T02:13:03;101468.72;;;-7.57;58.53
69982;BME280;57319;56.274;43.980;2024-02-26T02:15:29;101470.47;;;-7.56;59.78
69982;BME280;57319;56.274;43.980;2024-02-26T02:17:54;101478.00;;;-7.56;60.06
69982;BME280;57319;56.274;43.980;2024-02-26T02:20:25;101474.75;;;-7.74;57.21
69982;BME280;57319;56.274;43.980;2024-02-26T02:22:50;101476.78;;;-7.51;59.41
69982;BME280;57319;56.274;43.980;2024-02-26T02:25:16;101479.53;;;-7.48;59.51
69982;BME280;57319;56.274;43.980;2024-02-26T02:27:42;101474.16;;;-7.53;59.84
69982;BME280;57319;56.274;43.980;2024-02-26T02:30:09;101473.47;;;-7.60;58.88
69982;BME280;57319;56.274;43.980;2024-02-26T02:32:37;101474.53;;;-7.48;60.78
69982;BME280;57319;56.274;43.980;2024-02-26T02:35:04;101470.13;;;-7.51;59.20
69982;BME280;57319;56.274;43.980;2024-02-26T02:37:30;101470.81;;;-7.43;59.49
69982;BME280;57319;56.274;43.980;2024-02-26T02:39:56;101465.81;;;-7.43;60.12
69982;BME280;57319;56.274;43.980;2024-02-26T02:42:23;101472.28;;;-7.45;60.24
69982;BME280;57319;56.274;43.980;2024-02-26T02:44:49;101475.22;;;-7.40;59.87
69982;BME280;57319;56.274;43.980;2024-02-26T02:47:15;101473.31;;;-7.43;59.80
69982;BME280;57319;56.274;43.980;2024-02-26T02:49:40;101468.69;;;-7.38;59.19
69982;BME280;57319;56.274;43.980;2024-02-26T02:52:06;101468.25;;;-7.53;57.94
69982;BME280;57319;56.274;43.980;2024-02-26T02:54:32;101462.16;;;-7.46;58.88
69982;BME280;57319;56.274;43.980;2024-02-26T02:56:57;101468.47;;;-7.60;57.56
69982;BME280;57319;56.274;43.980;2024-02-26T02:59:23;101463.69;;;-7.38;59.07
69982;BME280;57319;56.274;43.980;2024-02-26T03:01:48;101459.72;;;-7.36;58.73
69982;BME280;57319;56.274;43.980;2024-02-26T03:04:14;101461.19;;;-7.38;58.41
69982;BME280;57319;56.274;43.980;2024-02-26T03:06:40;101457.84;;;-7.28;59.88
69982;BME280;57319;56.274;43.980;2024-02-26T03:09:05;101460.50;;;-7.27;60.38
69982;BME280;57319;56.274;43.980;2024-02-26T03:11:31;101456.88;;;-7.30;60.26
69982;BME280;57319;56.274;43.980;2024-02-26T03:13:57;101468.22;;;-7.34;61.94
69982;BME280;57319;56.274;43.980;2024-02-26T03:16:22;101455.50;;;-7.27;59.68
69982;BME280;57319;56.274;43.980;2024-02-26T03:18:48;101462.69;;;-7.40;60.94
69982;BME280;57319;56.274;43.980;2024-02-26T03:21:14;101458.63;;;-7.29;61.00
69982;BME280;57319;56.274;43.980;2024-02-26T03:23:39;101457.72;;;-7.30;61.74
69982;BME280;57319;56.274;43.980;2024-02-26T03:26:05;101467.50;;;-7.23;60.21
69982;BME280;57319;56.274;43.980;2024-02-26T03:28:31;101459.88;;;-7.24;59.28
69982;BME280;57319;56.274;43.980;2024-02-26T03:30:59;101454.75;;;-7.26;60.04
69982;BME280;57319;56.274;43.980;2024-02-26T03:33:25;101457.50;;;-7.23;59.91
69982;BME280;57319;56.274;43.980;2024-02-26T03:35:50;101458.31;;;-7.13;59.79
69982;BME280;57319;56.274;43.980;2024-02-26T03:38:16;101457.00;;;-7.29;59.17
69982;BME280;57319;56.274;43.980;2024-02-26T03:40:42;101463.53;;;-7.21;59.81
69982;BME280;57319;56.274;43.980;2024-02-26T03:43:08;101462.19;;;-7.17;60.10
69982;BME280;57319;56.274;43.980;2024-02-26T03:45:33;101459.03;;;-7.14;59.63
69982;BME280;57319;56.274;43.980;2024-02-26T03:47:59;101463.88;;;-7.26;58.01
69982;BME280;57319;56.274;43.980;2024-02-26T03:50:25;101468.94;;;-7.16;60.35
69982;BME280;57319;56.274;43.980;2024-02-26T03:52:50;101463.16;;;-7.25;59.34
69982;BME280;57319;56.274;43.980;2024-02-26T03:55:16;101467.72;;;-7.11;60.34
69982;BME280;57319;56.274;43.980;2024-02-26T03:57:46;101463.50;;;-7.02;59.57
69982;BME280;57319;56.274;43.980;2024-02-26T04:00:12;101463.25;;;-6.94;59.83
69982;BME280;57319;56.274;43.980;2024-02-26T04:02:38;101459.13;;;-6.94;59.90
69982;BME280;57319;56.274;43.980;2024-02-26T04:05:04;101466.13;;;-6.90;60.46
69982;BME280;57319;56.274;43.980;2024-02-26T04:07:30;101465.53;;;-6.87;59.54
69982;BME280;57319;56.274;43.980;2024-02-26T04:09:57;101463.25;;;-7.05;60.78
69982;BME280;57319;56.274;43.980;2024-02-26T04:12:23;101467.16;;;-6.88;59.50
69982;BME280;57319;56.274;43.980;2024-02-26T04:14:49;101477.44;;;-6.85;59.44
69982;BME280;57319;56.274;43.980;2024-02-26T04:17:14;101473.44;;;-6.83;59.99
69982;BME280;57319;56.274;43.980;2024-02-26T04:19:40;101474.19;;;-6.84;59.27
69982;BME280;57319;56.274;43.980;2024-02-26T04:22:05;101476.31;;;-6.88;59.84
69982;BME280;57319;56.274;43.980;2024-02-26T04:24:32;101470.34;;;-6.80;58.92
69982;BME280;57319;56.274;43.980;2024-02-26T04:26:58;101467.94;;;-6.78;59.72
69982;BME280;57319;56.274;43.980;2024-02-26T04:29:24;101475.59;;;-6.77;59.65
69982;BME280;57319;56.274;43.980;2024-02-26T04:31:50;101469.72;;;-6.67;59.50
69982;BME280;57319;56.274;43.980;2024-02-26T04:34:15;101468.38;;;-6.63;59.80
69982;BME280;57319;56.274;43.980;2024-02-26T04:36:41;101474.00;;;-6.56;59.60
69982;BME280;57319;56.274;43.980;2024-02-26T04:39:08;101477.00;;;-6.70;58.32
69982;BME280;57319;56.274;43.980;2024-02-26T04:41:33;101479.75;;;-6.57;59.16
69982;BME280;57319;56.274;43.980;2024-02-26T04:43:59;101474.41;;;-6.51;59.44
69982;BME280;57319;56.274;43.980;2024-02-26T04:46:25;101473.25;;;-6.44;60.45
69982;BME280;57319;56.274;43.980;2024-02-26T04:48:51;101480.78;;;-6.44;60.17
69982;BME280;57319;56.274;43.980;2024-02-26T04:51:17;101481.75;;;-6.63;57.64
69982;BME280;57319;56.274;43.980;2024-02-26T04:53:42;101488.16;;;-6.46;58.77
69982;BME280;57319;56.274;43.980;2024-02-26T04:56:08;101483.44;;;-6.43;58.71
69982;BME280;57319;56.274;43.980;2024-02-26T04:58:34;101480.28;;;-6.51;57.09
69982;BME280;57319;56.274;43.980;2024-02-26T05:00:59;101477.44;;;-6.35;58.25
69982;BME280;57319;56.274;43.980;2024-02-26T05:03:25;101487.09;;;-6.29;57.34
69982;BME280;57319;56.274;43.980;2024-02-26T05:05:51;101480.28;;;-6.20;58.68
69982;BME280;57319;56.274;43.980;2024-02-26T05:08:16;101485.47;;;-6.18;59.35
69982;BME280;57319;56.274;43.980;2024-02-26T05:10:42;101494.59;;;-6.29;57.98
69982;BME280;57319;56.274;43.980;2024-02-26T05:13:10;101480.19;;;-6.21;57.00
69982;BME280;57319;56.274;43.980;2024-02-26T05:15:36;101485.84;;;-6.14;56.95
69982;BME280;57319;56.274;43.980;2024-02-26T05:18:02;101484.19;;;-6.34;55.91
69982;BME280;57319;56.274;43.980;2024-02-26T05:20:28;101488.69;;;-6.40;56.65
69982;BME280;57319;56.274;43.980;2024-02-26T05:22:54;101486.22;;;-6.19;57.00
69982;BME280;57319;56.274;43.980;2024-02-26T05:25:20;101489.34;;;-6.01;55.84
69982;BME280;57319;56.274;43.980;2024-02-26T05:27:45;101492.84;;;-6.30;55.79
69982;BME280;57319;56.274;43.980;2024-02-26T05:30:11;101481.19;;;-6.09;55.66
69982;BME280;57319;56.274;43.980;2024-02-26T05:32:37;101484.56;;;-5.98;57.27
69982;BME280;57319;56.274;43.980;2024-02-26T05:35:03;101481.53;;;-5.94;57.28
69982;BME280;57319;56.274;43.980;2024-02-26T05:37:30;101493.22;;;-6.25;55.52
69982;BME280;57319;56.274;43.980;2024-02-26T05:39:56;101488.81;;;-5.97;58.09
69982;BME280;57319;56.274;43.980;2024-02-26T05:42:21;101482.66;;;-5.90;57.50
69982;BME280;57319;56.274;43.980;2024-02-26T05:44:47;101478.56;;;-6.10;56.10
69982;BME280;57319;56.274;43.980;2024-02-26T05:47:13;101490.44;;;-6.28;55.44
69982;BME280;57319;56.274;43.980;2024-02-26T05:49:43;101486.81;;;-6.11;57.03
69982;BME280;57319;56.274;43.980;2024-02-26T05:52:08;101488.84;;;-6.18;55.44
69982;BME280;57319;56.274;43.980;2024-02-26T05:54:34;101480.63;;;-5.84;56.96
69982;BME280;57319;56.274;43.980;2024-02-26T05:57:00;101489.28;;;-5.70;56.24
69982;BME280;57319;56.274;43.980;2024-02-26T05:59:26;101475.25;;;-5.68;56.31
69982;BME280;57319;56.274;43.980;2024-02-26T06:01:52;101482.25;;;-5.74;55.75
69982;BME280;57319;56.274;43.980;2024-02-26T06:04:17;101485.22;;;-5.58;55.55
69982;BME280;57319;56.274;43.980;2024-02-26T06:06:46;101489.28;;;-5.60;54.95
69982;BME280;57319;56.274;43.980;2024-02-26T06:09:12;101486.88;;;-5.58;56.50
69982;BME280;57319;56.274;43.980;2024-02-26T06:11:38;101477.47;;;-5.51;55.88
69982;BME280;57319;56.274;43.980;2024-02-26T06:14:04;101479.66;;;-5.86;55.78
69982;BME280;57319;56.274;43.980;2024-02-26T06:16:30;101475.34;;;-5.56;56.91
69982;BME280;57319;56.274;43.980;2024-02-26T06:18:56;101479.81;;;-5.42;57.39
69982;BME280;57319;56.274;43.980;2024-02-26T06:21:22;101483.19;;;-5.41;56.44
69982;BME280;57319;56.274;43.980;2024-02-26T06:23:48;101488.09;;;-5.33;57.49
69982;BME280;57319;56.274;43.980;2024-02-26T06:26:14;101484.03;;;-5.31;57.33
69982;BME280;57319;56.274;43.980;2024-02-26T06:28:40;101488.44;;;-5.28;56.51
69982;BME280;57319;56.274;43.980;2024-02-26T06:31:06;101484.84;;;-5.42;55.58
69982;BME280;57319;56.274;43.980;2024-02-26T06:33:32;101490.44;;;-5.24;55.04
69982;BME280;57319;56.274;43.980;2024-02-26T06:35:58;101477.00;;;-5.24;56.21
69982;BME280;57319;56.274;43.980;2024-02-26T06:38:24;101476.50;;;-5.31;55.92
69982;BME280;57319;56.274;43.980;2024-02-26T06:40:50;101482.16;;;-5.23;55.55
69982;BME280;57319;56.274;43.980;2024-02-26T06:43:15;101471.50;;;-5.31;56.01
69982;BME280;57319;56.274;43.980;2024-02-26T06:45:41;101481.75;;;-5.17;55.92
69982;BME280;57319;56.274;43.980;2024-02-26T06:48:07;101474.00;;;-5.20;56.21
69982;BME280;57319;56.274;43.980;2024-02-26T06:50:33;101478.28;;;-5.30;55.08
69982;BME280;57319;56.274;43.980;2024-02-26T06:52:58;101478.53;;;-4.94;55.19
69982;BME280;57319;56.274;43.980;2024-02-26T06:55:24;101493.41;;;-4.85;55.54
69982;BME280;57319;56.274;43.980;2024-02-26T06:57:50;101480.81;;;-5.07;53.04
69982;BME280;57319;56.274;43.980;2024-02-26T07:00:16;101486.56;;;-4.98;54.99
69982;BME280;57319;56.274;43.980;2024-02-26T07:02:43;101479.16;;;-4.74;55.72
69982;BME280;57319;56.274;43.980;2024-02-26T07:05:09;101485.84;;;-4.75;54.68
69982;BME280;57319;56.274;43.980;2024-02-26T07:07:35;101485.00;;;-4.86;54.16
69982;BME280;57319;56.274;43.980;2024-02-26T07:10:00;101474.41;;;-5.04;55.28
69982;BME280;57319;56.274;43.980;2024-02-26T07:12:30;101472.34;;;-4.65;56.04
69982;BME280;57319;56.274;43.980;2024-02-26T07:14:56;101474.16;;;-4.74;53.81
69982;BME280;57319;56.274;43.980;2024-02-26T07:17:22;101467.75;;;-4.59;54.95
69982;BME280;57319;56.274;43.980;2024-02-26T07:19:47;101473.06;;;-4.44;55.69
69982;BME280;57319;56.274;43.980;2024-02-26T07:22:13;101482.28;;;-4.45;54.23
69982;BME280;57319;56.274;43.980;2024-02-26T07:24:39;101477.00;;;-4.26;55.64
69982;BME280;57319;56.274;43.980;2024-02-26T07:27:05;101479.41;;;-4.15;54.78
69982;BME280;57319;56.274;43.980;2024-02-26T07:29:31;101476.81;;;-4.05;53.93
69982;BME280;57319;56.274;43.980;2024-02-26T07:31:56;101471.63;;;-3.84;54.36
69982;BME280;57319;56.274;43.980;2024-02-26T07:34:22;101471.94;;;-3.80;53.86
69982;BME280;57319;56.274;43.980;2024-02-26T07:36:53;101469.78;;;-3.75;53.67
69982;BME280;57319;56.274;43.980;2024-02-26T07:39:20;101476.44;;;-3.52;53.79
69982;BME280;57319;56.274;43.980;2024-02-26T07:41:45;101471.31;;;-3.30;53.84
69982;BME280;57319;56.274;43.980;2024-02-26T07:44:17;101471.63;;;-3.25;53.07
69982;BME280;57319;56.274;43.980;2024-02-26T07:46:43;101477.31;;;-3.28;52.13
69982;BME280;57319;56.274;43.980;2024-02-26T07:49:08;101466.81;;;-3.22;52.90
69982;BME280;57319;56.274;43.980;2024-02-26T07:51:34;101468.47;;;-3.22;52.72
69982;BME280;57319;56.274;43.980;2024-02-26T07:54:00;101476.78;;;-3.47;53.86
69982;BME280;57319;56.274;43.980;2024-02-26T07:56:26;101477.13;;;-3.31;53.72
69982;BME280;57319;56.274;43.980;2024-02-26T07:58:52;101471.84;;;-3.22;53.42
69982;BME280;57319;56.274;43.980;2024-02-26T08:01:17;101470.66;;;-3.39;54.91
69982;BME280;57319;56.274;43.980;2024-02-26T08:03:43;101481.81;;;-3.24;53.52
69982;BME280;57319;56.274;43.980;2024-02-26T08:06:09;101468.88;;;-3.16;53.72
69982;BME280;57319;56.274;43.980;2024-02-26T08:08:35;101459.03;;;-3.13;53.10
69982;BME280;57319;56.274;43.980;2024-02-26T08:11:00;101466.50;;;-3.27;53.66
69982;BME280;57319;56.274;43.980;2024-02-26T08:13:26;101462.22;;;-3.28;54.28
69982;BME280;57319;56.274;43.980;2024-02-26T08:15:52;101464.19;;;-3.24;54.32
69982;BME280;57319;56.274;43.980;2024-02-26T08:18:18;101466.91;;;-3.20;53.80
69982;BME280;57319;56.274;43.980;2024-02-26T08:20:45;101462.09;;;-3.17;54.25
69982;BME280;57319;56.274;43.980;2024-02-26T08:23:10;101456.81;;;-3.09;54.43
69982;BME280;57319;56.274;43.980;2024-02-26T08:25:39;101469.28;;;-2.98;54.40
69982;BME280;57319;56.274;43.980;2024-02-26T08:28:05;101461.91;;;-2.83;54.67
69982;BME280;57319;56.274;43.980;2024-02-26T08:30:34;101460.78;;;-2.75;53.55
69982;BME280;57319;56.274;43.980;2024-02-26T08:33:00;101455.34;;;-2.81;54.63
69982;BME280;57319;56.274;43.980;2024-02-26T08:35:26;101453.78;;;-2.79;53.85
69982;BME280;57319;56.274;43.980;2024-02-26T08:37:52;101453.03;;;-2.78;53.44
69982;BME280;57319;56.274;43.980;2024-02-26T08:40:18;101450.81;;;-2.74;54.23
69982;BME280;57319;56.274;43.980;2024-02-26T08:42:45;101444.31;;;-2.58;54.01
69982;BME280;57319;56.274;43.980;2024-02-26T08:45:11;101447.69;;;-2.58;54.04
69982;BME280;57319;56.274;43.980;2024-02-26T08:47:38;101445.28;;;-2.56;53.13
69982;BME280;57319;56.274;43.980;2024-02-26T08:50:04;101448.28;;;-2.23;52.97
69982;BME280;57319;56.274;43.980;2024-02-26T08:52:30;101445.78;;;-2.23;52.90
69982;BME280;57319;56.274;43.980;2024-02-26T08:54:56;101447.56;;;-1.95;52.96
69982;BME280;57319;56.274;43.980;2024-02-26T08:57:22;101445.38;;;-1.77;52.06
69982;BME280;57319;56.274;43.980;2024-02-26T08:59:49;101448.47;;;-1.68;51.11
69982;BME280;57319;56.274;43.980;2024-02-26T09:02:14;101440.81;;;-1.56;51.07
69982;BME280;57319;56.274;43.980;2024-02-26T09:04:40;101441.00;;;-1.53;50.53
69982;BME280;57319;56.274;43.980;2024-02-26T09:07:05;101439.66;;;-1.48;51.95
69982;BME280;57319;56.274;43.980;2024-02-26T09:09:31;101446.16;;;-1.25;52.33
69982;BME280;57319;56.274;43.980;2024-02-26T09:11:57;101441.47;;;-1.18;50.99
69982;BME280;57319;56.274;43.980;2024-02-26T09:14:23;101442.69;;;-1.40;49.58
69982;BME280;57319;56.274;43.980;2024-02-26T09:16:49;101445.56;;;-1.21;49.98
69982;BME280;57319;56.274;43.980;2024-02-26T09:19:14;101436.41;;;-1.05;49.70
69982;BME280;57319;56.274;43.980;2024-02-26T09:21:44;101433.84;;;-0.92;49.52
69982;BME280;57319;56.274;43.980;2024-02-26T09:24:11;101435.63;;;-1.04;48.86
69982;BME280;57319;56.274;43.980;2024-02-26T09:26:37;101436.97;;;-0.96;48.22
69982;BME280;57319;56.274;43.980;2024-02-26T09:29:03;101432.41;;;-0.45;48.49
69982;BME280;57319;56.274;43.980;2024-02-26T09:31:30;101434.34;;;-0.26;47.72
69982;BME280;57319;56.274;43.980;2024-02-26T09:33:56;101431.63;;;-0.44;46.94
69982;BME280;57319;56.274;43.980;2024-02-26T09:36:22;101432.44;;;-0.30;45.78
69982;BME280;57319;56.274;43.980;2024-02-26T09:38:48;101431.22;;;-0.07;46.30
69982;BME280;57319;56.274;43.980;2024-02-26T09:41:17;101433.41;;;-0.13;46.45
69982;BME280;57319;56.274;43.980;2024-02-26T09:43:45;101421.09;;;-0.07;46.56
69982;BME280;57319;56.274;43.980;2024-02-26T09:46:13;101428.88;;;-0.62;44.73
69982;BME280;57319;56.274;43.980;2024-02-26T09:48:42;101421.97;;;-0.21;46.75
69982;BME280;57319;56.274;43.980;2024-02-26T09:51:11;101421.88;;;-0.08;47.09
69982;BME280;57319;56.274;43.980;2024-02-26T09:53:38;101420.50;;;-0.03;45.62
69982;BME280;57319;56.274;43.980;2024-02-26T09:56:07;101422.41;;;0.16;46.70
69982;BME280;57319;56.274;43.980;2024-02-26T09:58:34;101423.16;;;0.45;44.25
69982;BME280;57319;56.274;43.980;2024-02-26T10:01:02;101412.81;;;0.57;44.09
69982;BME280;57319;56.274;43.980;2024-02-26T10:03:38;101413.69;;;0.58;43.84
69982;BME280;57319;56.274;43.980;2024-02-26T10:06:08;101409.56;;;0.60;44.79
69982;BME280;57319;56.274;43.980;2024-02-26T10:08:35;101401.91;;;0.43;45.06
69982;BME280;57319;56.274;43.980;2024-02-26T10:11:03;101407.72;;;0.26;43.89
69982;BME280;57319;56.274;43.980;2024-02-26T10:13:29;101406.56;;;-0.54;42.52
69982;BME280;57319;56.274;43.980;2024-02-26T10:15:55;101405.56;;;0.02;43.31
69982;BME280;57319;56.274;43.980;2024-02-26T10:18:22;101397.94;;;0.63;44.10
69982;BME280;57319;56.274;43.980;2024-02-26T10:21:01;101395.69;;;1.01;43.72
69982;BME280;57319;56.274;43.980;2024-02-26T10:23:27;101402.75;;;1.40;42.00
69982;BME280;57319;56.274;43.980;2024-02-26T10:25:56;101395.78;;;1.35;41.85
69982;BME280;57319;56.274;43.980;2024-02-26T10:28:22;101395.38;;;1.61;40.01
69982;BME280;57319;56.274;43.980;2024-02-26T10:30:48;101395.34;;;1.95;41.33
69982;BME280;57319;56.274;43.980;2024-02-26T10:33:14;101392.88;;;1.97;39.65
69982;BME280;57319;56.274;43.980;2024-02-26T10:35:46;101396.75;;;1.72;41.06
69982;BME280;57319;56.274;43.980;2024-02-26T10:38:12;101394.97;;;1.37;40.38
69982;BME280;57319;56.274;43.980;2024-02-26T10:40:37;101391.66;;;1.38;40.47
69982;BME280;57319;56.274;43.980;2024-02-26T10:43:03;101390.06;;;1.40;41.24
69982;BME280;57319;56.274;43.980;2024-02-26T10:45:29;101392.03;;;1.80;39.46
69982;BME280;57319;56.274;43.980;2024-02-26T10:47:55;101388.97;;;2.03;40.56
69982;BME280;57319;56.274;43.980;2024-02-26T10:50:20;101381.03;;;2.33;40.21
69982;BME280;57319;56.274;43.980;2024-02-26T10:52:46;101388.28;;;2.62;39.04
69982;BME280;57319;56.274;43.980;2024-02-26T10:55:16;101386.59;;;2.80;38.27
69982;BME280;57319;56.274;43.980;2024-02-26T10:57:45;101387.63;;;2.66;38.85
69982;BME280;57319;56.274;43.980;2024-02-26T11:00:15;101376.94;;;1.99;39.92
69982;BME280;57319;56.274;43.980;2024-02-26T11:02:41;101379.66;;;1.51;39.54
69982;BME280;57319;56.274;43.980;2024-02-26T11:05:11;101378.97;;;1.38;41.09
69982;BME280;57319;56.274;43.980;2024-02-26T11:07:37;101378.91;;;1.36;39.20
69982;BME280;57319;56.274;43.980;2024-02-26T11:10:04;101370.31;;;1.34;40.67
69982;BME280;57319;56.274;43.980;2024-02-26T11:12:32;101373.34;;;1.27;39.66
69982;BME280;57319;56.274;43.980;2024-02-26T11:14:59;101373.28;;;1.09;40.75
69982;BME280;57319;56.274;43.980;2024-02-26T11:17:28;101367.88;;;1.02;42.02
69982;BME280;57319;56.274;43.980;2024-02-26T11:19:57;101370.09;;;0.96;41.67
69982;BME280;57319;56.274;43.980;2024-02-26T11:22:26;101367.09;;;1.04;40.99
69982;BME280;57319;56.274;43.980;2024-02-26T11:24:53;101356.59;;;1.30;38.75
69982;BME280;57319;56.274;43.980;2024-02-26T11:27:23;101351.72;;;1.17;39.63
69982;BME280;57319;56.274;43.980;2024-02-26T11:29:52;101351.31;;;1.60;38.06
69982;BME280;57319;56.274;43.980;2024-02-26T11:32:20;101356.28;;;1.75;40.30
69982;BME280;57319;56.274;43.980;2024-02-26T11:34:46;101344.34;;;2.27;38.99
69982;BME280;57319;56.274;43.980;2024-02-26T11:37:13;101357.81;;;3.20;37.46
69982;BME280;57319;56.274;43.980;2024-02-26T11:39:43;101350.59;;;3.72;36.08
69982;BME280;57319;56.274;43.980;2024-02-26T11:42:15;101355.88;;;2.20;37.93
69982;BME280;57319;56.274;43.980;2024-02-26T11:44:41;101350.34;;;1.40;39.42
69982;BME280;57319;56.274;43.980;2024-02-26T11:47:14;101358.31;;;0.49;40.47
69982;BME280;57319;56.274;43.980;2024-02-26T11:49:43;101354.13;;;0.18;42.16
69982;BME280;57319;56.274;43.980;2024-02-26T11:52:09;101355.22;;;-0.08;43.39
69982;BME280;57319;56.274;43.980;2024-02-26T11:54:52;101351.25;;;-0.18;42.30
69982;BME280;57319;56.274;43.980;2024-02-26T11:57:40;101343.88;;;-0.30;42.80
69982;BME280;57319;56.274;43.980;2024-02-26T12:00:15;101347.78;;;-0.20;44.11
69982;BME280;57319;56.274;43.980;2024-02-26T12:02:53;101344.72;;;-0.29;43.62
69982;BME280;57319;56.274;43.980;2024-02-26T12:05:32;101338.34;;;0.07;42.43
69982;BME280;57319;56.274;43.980;2024-02-26T12:08:02;101342.00;;;0.12;43.00
69982;BME280;57319;56.274;43.980;2024-02-26T12:10:39;101346.16;;;0.27;43.40
69982;BME280;57319;56.274;43.980;2024-02-26T12:13:15;101334.19;;;0.24;43.03
69982;BME280;57319;56.274;43.980;2024-02-26T12:15:59;101338.44;;;-0.06;43.27
69982;BME280;57319;56.274;43.980;2024-02-26T12:18:44;101338.34;;;-0.08;44.55
69982;BME280;57319;56.274;43.980;2024-02-26T12:21:10;101332.66;;;-0.04;45.24
69982;BME280;57319;56.274;43.980;2024-02-26T12:23:38;101332.75;;;-0.02;44.71
69982;BME280;57319;56.274;43.980;2024-02-26T12:26:03;101333.25;;;0.07;45.34
69982;BME280;57319;56.274;43.980;2024-02-26T12:28:29;101332.28;;;0.05;45.84
69982;BME280;57319;56.274;43.980;2024-02-26T12:30:55;101335.50;;;-0.29;45.10
69982;BME280;57319;56.274;43.980;2024-02-26T12:33:21;101334.28;;;-0.21;46.22
69982;BME280;57319;56.274;43.980;2024-02-26T12:35:47;101333.38;;;-0.21;45.06
69982;BME280;57319;56.274;43.980;2024-02-26T12:38:15;101340.72;;;-0.56;43.00